sensor_id;sensor_type;location;lat;lon;timestamp;P1;durP1;ratioP1;P2;durP2;ratioP2
7340;SDS011;6870;50.944;6.932;2023-04-03T00:01:21;2.83;;;1.80;;
7340;SDS011;6870;50.944;6.932;2023-04-03T00:03:49;3.43;;;2.40;;
7340;SDS011;6870;50.944;6.932;2023-04-03T00:06:18;2.57;;;1.90;;
7340;SDS011;6870;50.944;6.932;2023-04-03T00:08:47;2.27;;;1.80;;
7340;SDS011;6870;50.944;6.932;2023-04-03T00:11:16;3.23;;;2.07;;
7340;SDS011;6870;50.944;6.932;2023-04-03T00:13:45;2.70;;;1.97;;
7340;SDS011;6870;50.944;6.932;2023-04-03T00:16:13;6.13;;;2.10;;
7340;SDS011;6870;50.944;6.932;2023-04-03T00:18:42;2.40;;;2.07;;
7340;SDS011;6870;50.944;6.932;2023-04-03T00:21:10;2.13;;;1.93;;
7340;SDS011;6870;50.944;6.932;2023-04-03T00:23:40;5.27;;;2.53;;
7340;SDS011;6870;50.944;6.932;2023-04-03T00:26:10;3.70;;;2.40;;
7340;SDS011;6870;50.944;6.932;2023-04-03T00:28:38;3.37;;;1.93;;
7340;SDS011;6870;50.944;6.932;2023-04-03T00:31:06;3.20;;;2.20;;
7340;SDS011;6870;50.944;6.932;2023-04-03T00:33:34;2.70;;;2.20;;
7340;SDS011;6870;50.944;6.932;2023-04-03T00:36:06;3.80;;;1.97;;
7340;SDS011;6870;50.944;6.932;2023-04-03T00:38:35;2.83;;;1.70;;
7340;SDS011;6870;50.944;6.932;2023-04-03T00:41:03;2.83;;;2.33;;
7340;SDS011;6870;50.944;6.932;2023-04-03T00:43:33;2.10;;;1.90;;
7340;SDS011;6870;50.944;6.932;2023-04-03T00:46:01;7.63;;;2.40;;
7340;SDS011;6870;50.944;6.932;2023-04-03T00:48:30;3.00;;;2.57;;
7340;SDS011;6870;50.944;6.932;2023-04-03T00:51:00;3.57;;;2.30;;
7340;SDS011;6870;50.944;6.932;2023-04-03T00:53:31;3.00;;;2.13;;
7340;SDS011;6870;50.944;6.932;2023-04-03T00:56:05;3.30;;;2.40;;
7340;SDS011;6870;50.944;6.932;2023-04-03T00:58:39;2.40;;;1.90;;
7340;SDS011;6870;50.944;6.932;2023-04-03T01:01:11;2.63;;;2.03;;
7340;SDS011;6870;50.944;6.932;2023-04-03T01:03:43;2.10;;;1.90;;
7340;SDS011;6870;50.944;6.932;2023-04-03T01:06:11;3.07;;;2.10;;
7340;SDS011;6870;50.944;6.932;2023-04-03T01:08:42;2.97;;;2.10;;
7340;SDS011;6870;50.944;6.932;2023-04-03T01:11:13;3.40;;;2.40;;
7340;SDS011;6870;50.944;6.932;2023-04-03T01:13:42;2.10;;;1.63;;
7340;SDS011;6870;50.944;6.932;2023-04-03T01:16:10;2.70;;;2.00;;
7340;SDS011;6870;50.944;6.932;2023-04-03T01:18:38;2.83;;;2.30;;
7340;SDS011;6870;50.944;6.932;2023-04-03T01:27:06;2.63;;;1.93;;
7340;SDS011;6870;50.944;6.932;2023-04-03T01:29:38;2.93;;;2.20;;
7340;SDS011;6870;50.944;6.932;2023-04-03T01:32:08;3.57;;;2.37;;
7340;SDS011;6870;50.944;6.932;2023-04-03T01:34:37;3.50;;;2.33;;
7340;SDS011;6870;50.944;6.932;2023-04-03T01:37:05;3.43;;;1.80;;
7340;SDS011;6870;50.944;6.932;2023-04-03T01:39:33;5.20;;;2.23;;
7340;SDS011;6870;50.944;6.932;2023-04-03T01:42:01;2.73;;;1.90;;
7340;SDS011;6870;50.944;6.932;2023-04-03T01:44:29;2.80;;;2.20;;
7340;SDS011;6870;50.944;6.932;2023-04-03T01:46:57;2.80;;;2.13;;
7340;SDS011;6870;50.944;6.932;2023-04-03T01:49:27;2.80;;;2.23;;
7340;SDS011;6870;50.944;6.932;2023-04-03T01:51:55;2.80;;;2.47;;
7340;SDS011;6870;50.944;6.932;2023-04-03T01:54:23;2.40;;;1.97;;
7340;SDS011;6870;50.944;6.932;2023-04-03T01:56:51;3.13;;;2.13;;
7340;SDS011;6870;50.944;6.932;2023-04-03T01:59:19;4.13;;;2.30;;
7340;SDS011;6870;50.944;6.932;2023-04-03T02:01:47;3.37;;;2.30;;
7340;SDS011;6870;50.944;6.932;2023-04-03T02:04:15;2.53;;;2.20;;
7340;SDS011;6870;50.944;6.932;2023-04-03T02:06:45;3.50;;;2.27;;
7340;SDS011;6870;50.944;6.932;2023-04-03T02:09:13;3.23;;;2.47;;
7340;SDS011;6870;50.944;6.932;2023-04-03T02:11:41;4.00;;;2.30;;
7340;SDS011;6870;50.944;6.932;2023-04-03T02:14:09;3.30;;;1.87;;
7340;SDS011;6870;50.944;6.932;2023-04-03T02:16:37;3.83;;;2.70;;
7340;SDS011;6870;50.944;6.932;2023-04-03T02:19:05;2.80;;;1.80;;
7340;SDS011;6870;50.944;6.932;2023-04-03T02:21:33;4.27;;;2.30;;
7340;SDS011;6870;50.944;6.932;2023-04-03T02:24:02;2.50;;;1.80;;
7340;SDS011;6870;50.944;6.932;2023-04-03T02:26:31;2.23;;;1.87;;
7340;SDS011;6870;50.944;6.932;2023-04-03T02:28:59;2.27;;;2.07;;
7340;SDS011;6870;50.944;6.932;2023-04-03T02:31:27;4.20;;;2.20;;
7340;SDS011;6870;50.944;6.932;2023-04-03T02:33:55;2.77;;;2.10;;
7340;SDS011;6870;50.944;6.932;2023-04-03T02:36:23;3.20;;;1.93;;
7340;SDS011;6870;50.944;6.932;2023-04-03T02:38:51;3.97;;;2.20;;
7340;SDS011;6870;50.944;6.932;2023-04-03T02:41:21;2.77;;;2.10;;
7340;SDS011;6870;50.944;6.932;2023-04-03T02:43:49;2.80;;;1.87;;
7340;SDS011;6870;50.944;6.932;2023-04-03T02:46:17;3.47;;;1.87;;
7340;SDS011;6870;50.944;6.932;2023-04-03T02:48:45;3.23;;;2.20;;
7340;SDS011;6870;50.944;6.932;2023-04-03T02:51:13;3.00;;;2.13;;
7340;SDS011;6870;50.944;6.932;2023-04-03T02:53:41;2.83;;;2.10;;
7340;SDS011;6870;50.944;6.932;2023-04-03T02:56:09;3.70;;;2.40;;
7340;SDS011;6870;50.944;6.932;2023-04-03T02:58:39;5.43;;;2.60;;
7340;SDS011;6870;50.944;6.932;2023-04-03T03:01:07;2.90;;;2.30;;
7340;SDS011;6870;50.944;6.932;2023-04-03T03:03:35;2.60;;;1.97;;
7340;SDS011;6870;50.944;6.932;2023-04-03T03:06:03;3.00;;;1.80;;
7340;SDS011;6870;50.944;6.932;2023-04-03T03:08:33;2.60;;;2.10;;
7340;SDS011;6870;50.944;6.932;2023-04-03T03:11:01;2.60;;;1.80;;
7340;SDS011;6870;50.944;6.932;2023-04-03T03:13:30;2.67;;;2.23;;
7340;SDS011;6870;50.944;6.932;2023-04-03T03:16:01;2.80;;;2.13;;
7340;SDS011;6870;50.944;6.932;2023-04-03T03:18:29;3.07;;;2.00;;
7340;SDS011;6870;50.944;6.932;2023-04-03T03:20:58;2.63;;;1.90;;
7340;SDS011;6870;50.944;6.932;2023-04-03T03:23:28;2.77;;;1.77;;
7340;SDS011;6870;50.944;6.932;2023-04-03T03:26:00;2.50;;;1.80;;
7340;SDS011;6870;50.944;6.932;2023-04-03T03:28:31;3.30;;;2.63;;
7340;SDS011;6870;50.944;6.932;2023-04-03T03:31:01;3.57;;;2.17;;
7340;SDS011;6870;50.944;6.932;2023-04-03T03:33:30;2.53;;;1.83;;
7340;SDS011;6870;50.944;6.932;2023-04-03T03:35:58;3.90;;;2.30;;
7340;SDS011;6870;50.944;6.932;2023-04-03T03:38:26;2.30;;;1.57;;
7340;SDS011;6870;50.944;6.932;2023-04-03T03:40:55;2.10;;;1.40;;
7340;SDS011;6870;50.944;6.932;2023-04-03T03:43:23;3.43;;;2.20;;
7340;SDS011;6870;50.944;6.932;2023-04-03T03:45:51;1.90;;;1.50;;
7340;SDS011;6870;50.944;6.932;2023-04-03T03:48:21;4.50;;;2.17;;
7340;SDS011;6870;50.944;6.932;2023-04-03T03:50:50;2.50;;;1.87;;
7340;SDS011;6870;50.944;6.932;2023-04-03T03:53:18;3.00;;;1.63;;
7340;SDS011;6870;50.944;6.932;2023-04-03T03:55:46;2.10;;;1.70;;
7340;SDS011;6870;50.944;6.932;2023-04-03T03:58:14;3.50;;;2.43;;
7340;SDS011;6870;50.944;6.932;2023-04-03T04:00:42;3.60;;;2.00;;
7340;SDS011;6870;50.944;6.932;2023-04-03T04:03:10;2.90;;;2.03;;
7340;SDS011;6870;50.944;6.932;2023-04-03T04:05:40;2.10;;;1.60;;
7340;SDS011;6870;50.944;6.932;2023-04-03T04:08:08;2.67;;;2.20;;
7340;SDS011;6870;50.944;6.932;2023-04-03T04:10:36;3.13;;;2.17;;
7340;SDS011;6870;50.944;6.932;2023-04-03T04:13:05;2.60;;;1.77;;
7340;SDS011;6870;50.944;6.932;2023-04-03T04:15:33;2.27;;;1.67;;
7340;SDS011;6870;50.944;6.932;2023-04-03T04:18:02;3.50;;;1.80;;
7340;SDS011;6870;50.944;6.932;2023-04-03T04:20:30;2.53;;;1.77;;
7340;SDS011;6870;50.944;6.932;2023-04-03T04:23:00;2.30;;;1.93;;
7340;SDS011;6870;50.944;6.932;2023-04-03T04:25:28;2.20;;;1.80;;
7340;SDS011;6870;50.944;6.932;2023-04-03T04:27:56;2.83;;;1.60;;
7340;SDS011;6870;50.944;6.932;2023-04-03T04:30:24;3.20;;;1.83;;
7340;SDS011;6870;50.944;6.932;2023-04-03T04:32:53;3.80;;;1.80;;
7340;SDS011;6870;50.944;6.932;2023-04-03T04:35:21;2.77;;;2.23;;
7340;SDS011;6870;50.944;6.932;2023-04-03T04:37:49;2.13;;;1.60;;
7340;SDS011;6870;50.944;6.932;2023-04-03T04:40:18;2.67;;;1.70;;
7340;SDS011;6870;50.944;6.932;2023-04-03T04:42:46;2.50;;;1.80;;
7340;SDS011;6870;50.944;6.932;2023-04-03T04:45:15;2.70;;;2.10;;
7340;SDS011;6870;50.944;6.932;2023-04-03T04:47:43;3.10;;;1.97;;
7340;SDS011;6870;50.944;6.932;2023-04-03T04:50:11;2.50;;;2.00;;
7340;SDS011;6870;50.944;6.932;2023-04-03T04:52:39;2.83;;;1.97;;
7340;SDS011;6870;50.944;6.932;2023-04-03T04:55:08;2.97;;;1.80;;
7340;SDS011;6870;50.944;6.932;2023-04-03T04:57:37;2.57;;;1.83;;
7340;SDS011;6870;50.944;6.932;2023-04-03T05:00:05;3.13;;;1.93;;
7340;SDS011;6870;50.944;6.932;2023-04-03T05:02:35;2.57;;;1.80;;
7340;SDS011;6870;50.944;6.932;2023-04-03T05:05:03;2.53;;;1.73;;
7340;SDS011;6870;50.944;6.932;2023-04-03T05:07:32;2.43;;;2.23;;
7340;SDS011;6870;50.944;6.932;2023-04-03T05:10:01;1.80;;;1.37;;
7340;SDS011;6870;50.944;6.932;2023-04-03T05:12:30;2.80;;;1.63;;
7340;SDS011;6870;50.944;6.932;2023-04-03T05:15:00;3.67;;;2.10;;
7340;SDS011;6870;50.944;6.932;2023-04-03T05:17:28;2.47;;;1.50;;
7340;SDS011;6870;50.944;6.932;2023-04-03T05:19:57;2.50;;;1.73;;
7340;SDS011;6870;50.944;6.932;2023-04-03T05:22:25;2.70;;;1.73;;
7340;SDS011;6870;50.944;6.932;2023-04-03T05:24:53;3.33;;;1.53;;
7340;SDS011;6870;50.944;6.932;2023-04-03T05:27:21;2.23;;;1.80;;
7340;SDS011;6870;50.944;6.932;2023-04-03T05:29:50;2.20;;;2.00;;
7340;SDS011;6870;50.944;6.932;2023-04-03T05:32:21;3.03;;;1.70;;
7340;SDS011;6870;50.944;6.932;2023-04-03T05:34:50;1.90;;;1.47;;
7340;SDS011;6870;50.944;6.932;2023-04-03T05:37:18;1.87;;;1.40;;
7340;SDS011;6870;50.944;6.932;2023-04-03T05:39:47;1.87;;;1.63;;
7340;SDS011;6870;50.944;6.932;2023-04-03T05:42:15;2.30;;;1.60;;
7340;SDS011;6870;50.944;6.932;2023-04-03T05:44:43;2.77;;;1.47;;
7340;SDS011;6870;50.944;6.932;2023-04-03T05:47:13;2.20;;;1.60;;
7340;SDS011;6870;50.944;6.932;2023-04-03T05:49:42;2.10;;;1.40;;
7340;SDS011;6870;50.944;6.932;2023-04-03T05:52:13;2.63;;;2.00;;
7340;SDS011;6870;50.944;6.932;2023-04-03T05:54:48;3.00;;;1.93;;
7340;SDS011;6870;50.944;6.932;2023-04-03T05:57:17;2.60;;;1.63;;
7340;SDS011;6870;50.944;6.932;2023-04-03T05:59:46;1.87;;;1.60;;
7340;SDS011;6870;50.944;6.932;2023-04-03T06:02:16;1.60;;;1.20;;
7340;SDS011;6870;50.944;6.932;2023-04-03T06:04:48;2.50;;;1.90;;
7340;SDS011;6870;50.944;6.932;2023-04-03T06:07:17;5.27;;;2.10;;
7340;SDS011;6870;50.944;6.932;2023-04-03T06:09:48;2.07;;;1.80;;
7340;SDS011;6870;50.944;6.932;2023-04-03T06:12:32;6.07;;;1.73;;
7340;SDS011;6870;50.944;6.932;2023-04-03T06:15:00;2.13;;;1.70;;
7340;SDS011;6870;50.944;6.932;2023-04-03T06:17:28;4.70;;;1.47;;
7340;SDS011;6870;50.944;6.932;2023-04-03T06:19:58;4.63;;;2.10;;
7340;SDS011;6870;50.944;6.932;2023-04-03T06:22:26;2.83;;;1.90;;
7340;SDS011;6870;50.944;6.932;2023-04-03T06:24:56;3.63;;;1.70;;
7340;SDS011;6870;50.944;6.932;2023-04-03T06:27:24;2.37;;;1.50;;
7340;SDS011;6870;50.944;6.932;2023-04-03T06:29:52;2.70;;;1.30;;
7340;SDS011;6870;50.944;6.932;2023-04-03T06:32:20;4.63;;;2.00;;
7340;SDS011;6870;50.944;6.932;2023-04-03T06:34:48;2.67;;;1.80;;
7340;SDS011;6870;50.944;6.932;2023-04-03T06:37:18;2.77;;;1.53;;
7340;SDS011;6870;50.944;6.932;2023-04-03T06:39:52;2.53;;;1.67;;
7340;SDS011;6870;50.944;6.932;2023-04-03T06:42:20;4.70;;;2.20;;
7340;SDS011;6870;50.944;6.932;2023-04-03T06:44:48;5.47;;;2.10;;
7340;SDS011;6870;50.944;6.932;2023-04-03T06:47:17;3.57;;;2.27;;
7340;SDS011;6870;50.944;6.932;2023-04-03T06:49:45;8.97;;;3.90;;
7340;SDS011;6870;50.944;6.932;2023-04-03T06:52:13;13.00;;;5.17;;
7340;SDS011;6870;50.944;6.932;2023-04-03T06:54:42;15.90;;;4.40;;
7340;SDS011;6870;50.944;6.932;2023-04-03T06:57:10;11.90;;;4.30;;
7340;SDS011;6870;50.944;6.932;2023-04-03T06:59:39;9.03;;;4.00;;
7340;SDS011;6870;50.944;6.932;2023-04-03T07:02:08;13.23;;;4.30;;
7340;SDS011;6870;50.944;6.932;2023-04-03T07:04:38;9.73;;;3.03;;
7340;SDS011;6870;50.944;6.932;2023-04-03T07:07:06;6.10;;;3.23;;
7340;SDS011;6870;50.944;6.932;2023-04-03T07:09:34;10.43;;;3.43;;
7340;SDS011;6870;50.944;6.932;2023-04-03T07:12:04;10.60;;;3.23;;
7340;SDS011;6870;50.944;6.932;2023-04-03T07:14:32;12.93;;;3.30;;
7340;SDS011;6870;50.944;6.932;2023-04-03T07:17:00;5.93;;;2.70;;
7340;SDS011;6870;50.944;6.932;2023-04-03T07:19:28;5.37;;;2.93;;
7340;SDS011;6870;50.944;6.932;2023-04-03T07:21:57;5.97;;;2.60;;
7340;SDS011;6870;50.944;6.932;2023-04-03T07:24:26;6.00;;;2.50;;
7340;SDS011;6870;50.944;6.932;2023-04-03T07:26:53;9.00;;;2.97;;
7340;SDS011;6870;50.944;6.932;2023-04-03T07:29:23;12.97;;;4.00;;
7340;SDS011;6870;50.944;6.932;2023-04-03T07:31:51;4.10;;;2.57;;
7340;SDS011;6870;50.944;6.932;2023-04-03T07:34:19;7.00;;;2.57;;
7340;SDS011;6870;50.944;6.932;2023-04-03T07:36:47;5.07;;;2.03;;
7340;SDS011;6870;50.944;6.932;2023-04-03T07:39:15;9.57;;;3.07;;
7340;SDS011;6870;50.944;6.932;2023-04-03T07:41:43;5.97;;;2.27;;
7340;SDS011;6870;50.944;6.932;2023-04-03T07:44:11;6.93;;;2.57;;
7340;SDS011;6870;50.944;6.932;2023-04-03T07:46:41;5.87;;;2.43;;
7340;SDS011;6870;50.944;6.932;2023-04-03T07:49:09;6.80;;;2.77;;
7340;SDS011;6870;50.944;6.932;2023-04-03T07:51:37;6.20;;;2.73;;
7340;SDS011;6870;50.944;6.932;2023-04-03T07:54:06;4.47;;;2.20;;
7340;SDS011;6870;50.944;6.932;2023-04-03T07:56:34;5.53;;;2.03;;
7340;SDS011;6870;50.944;6.932;2023-04-03T07:59:02;7.30;;;2.20;;
7340;SDS011;6870;50.944;6.932;2023-04-03T08:01:30;4.93;;;2.27;;
7340;SDS011;6870;50.944;6.932;2023-04-03T08:04:01;3.57;;;2.10;;
7340;SDS011;6870;50.944;6.932;2023-04-03T08:06:30;5.43;;;2.70;;
7340;SDS011;6870;50.944;6.932;2023-04-03T08:09:12;4.03;;;1.77;;
7340;SDS011;6870;50.944;6.932;2023-04-03T08:11:41;5.20;;;2.30;;
7340;SDS011;6870;50.944;6.932;2023-04-03T08:14:10;5.80;;;1.87;;
7340;SDS011;6870;50.944;6.932;2023-04-03T08:16:42;4.70;;;1.80;;
7340;SDS011;6870;50.944;6.932;2023-04-03T08:19:13;5.40;;;2.23;;
7340;SDS011;6870;50.944;6.932;2023-04-03T08:21:51;4.37;;;2.30;;
7340;SDS011;6870;50.944;6.932;2023-04-03T08:24:20;4.90;;;2.00;;
7340;SDS011;6870;50.944;6.932;2023-04-03T08:26:48;2.20;;;1.43;;
7340;SDS011;6870;50.944;6.932;2023-04-03T08:29:16;6.43;;;1.60;;
7340;SDS011;6870;50.944;6.932;2023-04-03T08:31:44;6.90;;;2.67;;
7340;SDS011;6870;50.944;6.932;2023-04-03T08:34:14;4.17;;;1.70;;
7340;SDS011;6870;50.944;6.932;2023-04-03T08:36:42;4.20;;;1.63;;
7340;SDS011;6870;50.944;6.932;2023-04-03T08:39:10;3.20;;;1.70;;
7340;SDS011;6870;50.944;6.932;2023-04-03T08:41:40;2.30;;;1.23;;
7340;SDS011;6870;50.944;6.932;2023-04-03T08:44:13;2.13;;;1.40;;
7340;SDS011;6870;50.944;6.932;2023-04-03T08:46:48;4.77;;;1.90;;
7340;SDS011;6870;50.944;6.932;2023-04-03T08:49:31;2.80;;;1.10;;
7340;SDS011;6870;50.944;6.932;2023-04-03T08:52:05;4.10;;;1.37;;
7340;SDS011;6870;50.944;6.932;2023-04-03T08:54:41;2.10;;;1.33;;
7340;SDS011;6870;50.944;6.932;2023-04-03T08:57:20;4.07;;;1.60;;
7340;SDS011;6870;50.944;6.932;2023-04-03T08:59:57;2.90;;;1.70;;
7340;SDS011;6870;50.944;6.932;2023-04-03T09:02:30;4.50;;;1.30;;
7340;SDS011;6870;50.944;6.932;2023-04-03T09:05:08;2.43;;;1.30;;
7340;SDS011;6870;50.944;6.932;2023-04-03T09:07:42;2.10;;;1.20;;
7340;SDS011;6870;50.944;6.932;2023-04-03T09:10:15;4.07;;;1.67;;
7340;SDS011;6870;50.944;6.932;2023-04-03T09:12:53;4.20;;;2.17;;
7340;SDS011;6870;50.944;6.932;2023-04-03T09:15:28;2.63;;;1.50;;
7340;SDS011;6870;50.944;6.932;2023-04-03T09:18:05;3.53;;;1.93;;
7340;SDS011;6870;50.944;6.932;2023-04-03T09:20:45;2.30;;;1.50;;
7340;SDS011;6870;50.944;6.932;2023-04-03T09:23:20;2.73;;;1.33;;
7340;SDS011;6870;50.944;6.932;2023-04-03T09:25:56;3.00;;;1.70;;
7340;SDS011;6870;50.944;6.932;2023-04-03T09:28:31;2.43;;;1.10;;
7340;SDS011;6870;50.944;6.932;2023-04-03T09:31:16;3.43;;;1.70;;
7340;SDS011;6870;50.944;6.932;2023-04-03T09:33:48;1.97;;;1.17;;
7340;SDS011;6870;50.944;6.932;2023-04-03T09:36:43;3.27;;;1.47;;
7340;SDS011;6870;50.944;6.932;2023-04-03T09:39:14;3.43;;;1.57;;
7340;SDS011;6870;50.944;6.932;2023-04-03T09:41:54;2.90;;;1.77;;
7340;SDS011;6870;50.944;6.932;2023-04-03T09:44:26;9.80;;;2.10;;
7340;SDS011;6870;50.944;6.932;2023-04-03T09:46:57;2.37;;;1.60;;
7340;SDS011;6870;50.944;6.932;2023-04-03T09:49:26;2.40;;;1.27;;
7340;SDS011;6870;50.944;6.932;2023-04-03T09:51:55;3.20;;;1.40;;
7340;SDS011;6870;50.944;6.932;2023-04-03T09:54:25;2.70;;;1.23;;
7340;SDS011;6870;50.944;6.932;2023-04-03T09:57:07;3.70;;;1.73;;
7340;SDS011;6870;50.944;6.932;2023-04-03T09:59:41;1.60;;;1.27;;
7340;SDS011;6870;50.944;6.932;2023-04-03T10:02:28;2.60;;;1.20;;
7340;SDS011;6870;50.944;6.932;2023-04-03T10:05:04;3.10;;;1.00;;
7340;SDS011;6870;50.944;6.932;2023-04-03T10:07:58;3.40;;;1.60;;
7340;SDS011;6870;50.944;6.932;2023-04-03T10:10:37;1.60;;;1.10;;
7340;SDS011;6870;50.944;6.932;2023-04-03T10:13:06;5.83;;;1.87;;
7340;SDS011;6870;50.944;6.932;2023-04-03T10:15:48;1.80;;;1.20;;
7340;SDS011;6870;50.944;6.932;2023-04-03T10:18:27;3.30;;;1.67;;
7340;SDS011;6870;50.944;6.932;2023-04-03T10:21:02;3.10;;;1.03;;
7340;SDS011;6870;50.944;6.932;2023-04-03T10:23:48;3.90;;;1.17;;
7340;SDS011;6870;50.944;6.932;2023-04-03T10:26:27;3.20;;;1.37;;
7340;SDS011;6870;50.944;6.932;2023-04-03T10:29:02;2.10;;;1.10;;
7340;SDS011;6870;50.944;6.932;2023-04-03T10:31:42;2.87;;;1.63;;
7340;SDS011;6870;50.944;6.932;2023-04-03T10:34:18;1.30;;;0.83;;
7340;SDS011;6870;50.944;6.932;2023-04-03T10:36:53;6.23;;;1.67;;
7340;SDS011;6870;50.944;6.932;2023-04-03T10:39:30;2.33;;;1.33;;
7340;SDS011;6870;50.944;6.932;2023-04-03T10:42:05;2.93;;;1.20;;
7340;SDS011;6870;50.944;6.932;2023-04-03T10:44:56;2.93;;;1.30;;
7340;SDS011;6870;50.944;6.932;2023-04-03T10:47:37;2.60;;;1.20;;
7340;SDS011;6870;50.944;6.932;2023-04-03T10:50:15;4.40;;;1.40;;
7340;SDS011;6870;50.944;6.932;2023-04-03T10:52:57;3.23;;;2.00;;
7340;SDS011;6870;50.944;6.932;2023-04-03T10:55:37;2.20;;;1.40;;
7340;SDS011;6870;50.944;6.932;2023-04-03T10:58:17;2.30;;;1.20;;
7340;SDS011;6870;50.944;6.932;2023-04-03T11:00:52;2.50;;;1.20;;
7340;SDS011;6870;50.944;6.932;2023-04-03T11:03:26;2.90;;;1.53;;
7340;SDS011;6870;50.944;6.932;2023-04-03T11:05:59;1.80;;;1.10;;
7340;SDS011;6870;50.944;6.932;2023-04-03T11:08:33;2.47;;;1.40;;
7340;SDS011;6870;50.944;6.932;2023-04-03T11:11:08;1.90;;;1.07;;
7340;SDS011;6870;50.944;6.932;2023-04-03T11:13:41;2.10;;;1.20;;
7340;SDS011;6870;50.944;6.932;2023-04-03T11:16:15;4.00;;;1.10;;
7340;SDS011;6870;50.944;6.932;2023-04-03T11:18:49;2.50;;;0.93;;
7340;SDS011;6870;50.944;6.932;2023-04-03T11:21:22;2.30;;;1.33;;
7340;SDS011;6870;50.944;6.932;2023-04-03T11:23:57;1.60;;;1.00;;
7340;SDS011;6870;50.944;6.932;2023-04-03T11:26:29;3.73;;;1.80;;
7340;SDS011;6870;50.944;6.932;2023-04-03T11:29:04;2.33;;;1.33;;
7340;SDS011;6870;50.944;6.932;2023-04-03T11:31:50;1.97;;;1.27;;
7340;SDS011;6870;50.944;6.932;2023-04-03T11:34:37;1.80;;;1.30;;
7340;SDS011;6870;50.944;6.932;2023-04-03T11:37:12;2.77;;;1.40;;
7340;SDS011;6870;50.944;6.932;2023-04-03T11:39:50;2.13;;;1.43;;
7340;SDS011;6870;50.944;6.932;2023-04-03T11:42:27;2.60;;;1.40;;
7340;SDS011;6870;50.944;6.932;2023-04-03T11:45:17;2.10;;;1.30;;
7340;SDS011;6870;50.944;6.932;2023-04-03T11:47:57;2.50;;;1.10;;
7340;SDS011;6870;50.944;6.932;2023-04-03T11:50:46;2.23;;;1.30;;
7340;SDS011;6870;50.944;6.932;2023-04-03T11:53:29;2.53;;;1.20;;
7340;SDS011;6870;50.944;6.932;2023-04-03T11:56:01;1.80;;;0.83;;
7340;SDS011;6870;50.944;6.932;2023-04-03T11:59:21;2.80;;;1.33;;
7340;SDS011;6870;50.944;6.932;2023-04-03T12:01:52;1.90;;;1.27;;
7340;SDS011;6870;50.944;6.932;2023-04-03T12:04:22;2.03;;;1.30;;
7340;SDS011;6870;50.944;6.932;2023-04-03T12:07:08;2.20;;;1.40;;
7340;SDS011;6870;50.944;6.932;2023-04-03T12:12:58;4.60;;;0.90;;
7340;SDS011;6870;50.944;6.932;2023-04-03T12:24:41;2.73;;;1.40;;
7340;SDS011;6870;50.944;6.932;2023-04-03T12:27:22;2.30;;;1.10;;
7340;SDS011;6870;50.944;6.932;2023-04-03T12:29:59;1.80;;;1.20;;
7340;SDS011;6870;50.944;6.932;2023-04-03T12:32:41;2.00;;;1.30;;
7340;SDS011;6870;50.944;6.932;2023-04-03T12:35:39;2.20;;;0.90;;
7340;SDS011;6870;50.944;6.932;2023-04-03T12:38:30;3.33;;;1.20;;
7340;SDS011;6870;50.944;6.932;2023-04-03T12:41:17;1.47;;;0.80;;
7340;SDS011;6870;50.944;6.932;2023-04-03T12:43:56;1.67;;;0.80;;
7340;SDS011;6870;50.944;6.932;2023-04-03T12:46:38;5.30;;;1.10;;
7340;SDS011;6870;50.944;6.932;2023-04-03T12:49:20;2.50;;;1.03;;
7340;SDS011;6870;50.944;6.932;2023-04-03T12:52:02;2.83;;;1.40;;
7340;SDS011;6870;50.944;6.932;2023-04-03T12:54:45;1.97;;;1.30;;
7340;SDS011;6870;50.944;6.932;2023-04-03T12:57:16;1.70;;;1.00;;
7340;SDS011;6870;50.944;6.932;2023-04-03T12:59:46;1.60;;;1.00;;
7340;SDS011;6870;50.944;6.932;2023-04-03T13:02:23;1.73;;;1.07;;
7340;SDS011;6870;50.944;6.932;2023-04-03T13:04:56;1.20;;;0.70;;
7340;SDS011;6870;50.944;6.932;2023-04-03T13:07:28;3.87;;;1.00;;
7340;SDS011;6870;50.944;6.932;2023-04-03T13:10:09;1.90;;;1.20;;
7340;SDS011;6870;50.944;6.932;2023-04-03T13:12:47;2.07;;;1.00;;
7340;SDS011;6870;50.944;6.932;2023-04-03T13:15:18;1.93;;;1.00;;
7340;SDS011;6870;50.944;6.932;2023-04-03T13:17:49;1.60;;;1.00;;
7340;SDS011;6870;50.944;6.932;2023-04-03T13:20:22;2.20;;;1.37;;
7340;SDS011;6870;50.944;6.932;2023-04-03T13:22:55;3.63;;;1.25;;
7340;SDS011;6870;50.944;6.932;2023-04-03T13:25:27;6.80;;;1.57;;
7340;SDS011;6870;50.944;6.932;2023-04-03T13:27:58;9.23;;;2.07;;
7340;SDS011;6870;50.944;6.932;2023-04-03T13:30:39;8.73;;;2.83;;
7340;SDS011;6870;50.944;6.932;2023-04-03T13:33:22;6.20;;;2.53;;
7340;SDS011;6870;50.944;6.932;2023-04-03T13:35:58;10.63;;;2.47;;
7340;SDS011;6870;50.944;6.932;2023-04-03T13:38:31;10.57;;;2.90;;
7340;SDS011;6870;50.944;6.932;2023-04-03T13:41:01;7.27;;;2.20;;
7340;SDS011;6870;50.944;6.932;2023-04-03T13:43:33;7.77;;;2.70;;
7340;SDS011;6870;50.944;6.932;2023-04-03T13:46:04;10.93;;;2.30;;
7340;SDS011;6870;50.944;6.932;2023-04-03T13:48:53;7.70;;;2.70;;
7340;SDS011;6870;50.944;6.932;2023-04-03T13:51:24;4.80;;;2.20;;
7340;SDS011;6870;50.944;6.932;2023-04-03T13:53:56;7.30;;;1.90;;
7340;SDS011;6870;50.944;6.932;2023-04-03T13:56:29;6.37;;;2.20;;
7340;SDS011;6870;50.944;6.932;2023-04-03T13:59:02;5.00;;;1.90;;
7340;SDS011;6870;50.944;6.932;2023-04-03T14:01:47;4.83;;;1.50;;
7340;SDS011;6870;50.944;6.932;2023-04-03T14:04:22;3.10;;;1.53;;
7340;SDS011;6870;50.944;6.932;2023-04-03T14:06:55;3.20;;;1.27;;
7340;SDS011;6870;50.944;6.932;2023-04-03T14:09:24;3.07;;;1.50;;
7340;SDS011;6870;50.944;6.932;2023-04-03T14:12:04;3.83;;;2.10;;
7340;SDS011;6870;50.944;6.932;2023-04-03T14:14:49;6.20;;;2.22;;
7340;SDS011;6870;50.944;6.932;2023-04-03T14:17:19;4.20;;;1.50;;
7340;SDS011;6870;50.944;6.932;2023-04-03T14:19:51;2.37;;;1.30;;
7340;SDS011;6870;50.944;6.932;2023-04-03T14:22:24;4.60;;;1.67;;
7340;SDS011;6870;50.944;6.932;2023-04-03T14:24:55;2.43;;;1.37;;
7340;SDS011;6870;50.944;6.932;2023-04-03T14:27:26;4.13;;;1.60;;
7340;SDS011;6870;50.944;6.932;2023-04-03T14:29:57;2.17;;;1.20;;
7340;SDS011;6870;50.944;6.932;2023-04-03T14:32:26;3.10;;;1.10;;
7340;SDS011;6870;50.944;6.932;2023-04-03T14:34:55;16.47;;;2.90;;
7340;SDS011;6870;50.944;6.932;2023-04-03T14:37:26;4.20;;;1.60;;
7340;SDS011;6870;50.944;6.932;2023-04-03T14:39:58;6.80;;;2.30;;
7340;SDS011;6870;50.944;6.932;2023-04-03T14:42:30;7.00;;;1.50;;
7340;SDS011;6870;50.944;6.932;2023-04-03T14:45:01;4.43;;;1.50;;
7340;SDS011;6870;50.944;6.932;2023-04-03T14:47:31;3.17;;;1.25;;
7340;SDS011;6870;50.944;6.932;2023-04-03T14:50:00;3.63;;;1.40;;
7340;SDS011;6870;50.944;6.932;2023-04-03T14:52:34;2.67;;;1.00;;
7340;SDS011;6870;50.944;6.932;2023-04-03T14:55:05;2.00;;;1.20;;
7340;SDS011;6870;50.944;6.932;2023-04-03T14:57:34;2.10;;;1.03;;
7340;SDS011;6870;50.944;6.932;2023-04-03T15:00:07;3.90;;;1.27;;
7340;SDS011;6870;50.944;6.932;2023-04-03T15:02:40;3.17;;;1.43;;
7340;SDS011;6870;50.944;6.932;2023-04-03T15:05:09;2.60;;;0.80;;
7340;SDS011;6870;50.944;6.932;2023-04-03T15:07:41;3.75;;;1.15;;
7340;SDS011;6870;50.944;6.932;2023-04-03T15:10:15;2.43;;;1.20;;
7340;SDS011;6870;50.944;6.932;2023-04-03T15:12:45;3.47;;;1.60;;
7340;SDS011;6870;50.944;6.932;2023-04-03T15:15:16;2.13;;;0.97;;
7340;SDS011;6870;50.944;6.932;2023-04-03T15:17:46;1.97;;;1.13;;
7340;SDS011;6870;50.944;6.932;2023-04-03T15:20:21;2.90;;;1.47;;
7340;SDS011;6870;50.944;6.932;2023-04-03T15:22:52;1.93;;;0.90;;
7340;SDS011;6870;50.944;6.932;2023-04-03T15:25:22;2.13;;;1.03;;
7340;SDS011;6870;50.944;6.932;2023-04-03T15:27:50;2.50;;;0.93;;
7340;SDS011;6870;50.944;6.932;2023-04-03T15:30:20;1.57;;;1.10;;
7340;SDS011;6870;50.944;6.932;2023-04-03T15:32:49;3.20;;;1.00;;
7340;SDS011;6870;50.944;6.932;2023-04-03T15:35:17;4.07;;;1.20;;
7340;SDS011;6870;50.944;6.932;2023-04-03T15:37:45;2.10;;;1.47;;
7340;SDS011;6870;50.944;6.932;2023-04-03T15:40:15;3.80;;;1.50;;
7340;SDS011;6870;50.944;6.932;2023-04-03T15:42:43;4.10;;;1.30;;
7340;SDS011;6870;50.944;6.932;2023-04-03T15:45:12;2.70;;;1.40;;
7340;SDS011;6870;50.944;6.932;2023-04-03T15:47:40;2.97;;;1.43;;
7340;SDS011;6870;50.944;6.932;2023-04-03T15:50:09;3.73;;;1.33;;
7340;SDS011;6870;50.944;6.932;2023-04-03T15:52:37;1.70;;;1.10;;
7340;SDS011;6870;50.944;6.932;2023-04-03T15:55:06;3.90;;;1.37;;
7340;SDS011;6870;50.944;6.932;2023-04-03T15:57:35;8.70;;;1.30;;
7340;SDS011;6870;50.944;6.932;2023-04-03T16:00:09;6.20;;;1.03;;
7340;SDS011;6870;50.944;6.932;2023-04-03T16:02:38;2.53;;;1.10;;